createdAt,value
2023-04-18T03:59:18.833Z,11.12
2023-04-18T04:02:22.705Z,11.04
2023-04-18T04:05:25.931Z,10.91
2023-04-18T04:08:28.804Z,10.78
2023-04-18T04:11:32.441Z,10.65
2023-04-18T04:14:35.165Z,10.56
2023-04-18T04:17:38.579Z,10.59
2023-04-18T04:20:41.470Z,10.49
2023-04-18T04:23:46.283Z,10.35
2023-04-18T04:26:50.796Z,10.33
2023-04-18T04:29:54.266Z,10.27
2023-04-18T04:32:57.033Z,10.32
2023-04-18T04:36:01.292Z,10.27
2023-04-18T04:39:06.698Z,10.25
2023-04-18T04:46:40.324Z,10.15
2023-04-18T04:49:46.168Z,10.09
2023-04-18T04:52:49.954Z,10.20
2023-04-18T04:55:53.872Z,10.29
2023-04-18T04:58:58.454Z,10.29
2023-04-18T05:02:02.095Z,10.26
2023-04-18T05:05:06.067Z,10.30
2023-04-18T05:08:09.037Z,10.36
2023-04-18T05:11:11.873Z,10.40
2023-04-18T05:14:16.056Z,10.44
2023-04-18T05:17:18.854Z,10.51
2023-04-18T05:20:21.862Z,10.61
2023-04-18T05:23:24.498Z,10.70
2023-04-18T05:26:27.455Z,10.76
2023-04-18T05:29:30.120Z,10.82
2023-04-18T05:32:33.235Z,10.87
2023-04-18T05:35:35.892Z,11.01
2023-04-18T05:38:38.840Z,11.13
2023-04-18T05:41:41.506Z,11.23
2023-04-18T05:44:44.840Z,11.33
2023-04-18T05:47:47.532Z,11.52
2023-04-18T05:50:50.573Z,11.66
2023-04-18T05:53:53.187Z,11.71
2023-04-18T05:56:57.259Z,11.83
2023-04-18T05:59:59.904Z,11.92
2023-04-18T06:03:03.251Z,12.06
2023-04-18T06:06:06.521Z,12.14
2023-04-18T06:09:09.102Z,12.22
2023-04-18T06:12:12.080Z,12.26
2023-04-18T06:15:14.774Z,12.45
2023-04-18T06:18:17.768Z,12.52
2023-04-18T06:21:21.292Z,12.56
2023-04-18T06:24:24.147Z,12.68
2023-04-18T06:27:31.414Z,12.78
2023-04-18T06:30:35.058Z,12.79
2023-04-18T06:33:38.102Z,12.96
2023-04-18T06:36:41.054Z,12.88
2023-04-18T06:39:43.715Z,13.12
2023-04-18T06:42:46.848Z,13.12
2023-04-18T06:45:49.524Z,13.28
2023-04-18T06:48:52.612Z,13.57
2023-04-18T06:51:55.460Z,13.77
2023-04-18T06:54:58.895Z,14.12
2023-04-18T06:58:01.686Z,14.21
2023-04-18T07:01:04.761Z,14.20
2023-04-18T07:04:07.646Z,14.29
2023-04-18T07:07:11.056Z,14.33
2023-04-18T07:10:13.744Z,14.80
2023-04-18T07:13:16.707Z,15.15
2023-04-18T07:16:19.903Z,14.93
2023-04-18T07:19:22.940Z,15.06
2023-04-18T07:22:26.166Z,15.13
2023-04-18T07:25:29.140Z,15.33
2023-04-18T07:28:33.050Z,15.52
2023-04-18T07:31:38.397Z,15.69
2023-04-18T07:34:41.476Z,15.68
2023-04-18T07:37:44.621Z,15.73
2023-04-18T07:40:47.464Z,15.77
2023-04-18T07:43:50.455Z,15.59
2023-04-18T07:46:53.443Z,15.39
2023-04-18T07:49:56.861Z,15.36
2023-04-18T07:52:59.618Z,15.09
2023-04-18T07:56:03.736Z,14.90
2023-04-18T07:59:06.742Z,14.84
2023-04-18T08:02:09.799Z,14.73
2023-04-18T08:05:13.097Z,14.81
2023-04-18T08:08:16.882Z,14.96
2023-04-18T08:11:21.181Z,15.26
2023-04-18T08:14:24.283Z,15.58
2023-04-18T08:17:27.348Z,15.65
2023-04-18T08:20:30.077Z,15.68
2023-04-18T08:23:33.057Z,15.96
2023-04-18T08:26:35.803Z,16.00
2023-04-18T08:29:38.984Z,16.14
2023-04-18T08:32:42.160Z,16.54
2023-04-18T08:35:45.265Z,16.83
2023-04-18T08:38:50.039Z,17.56
2023-04-18T08:41:59.738Z,17.67
2023-04-18T08:45:02.729Z,18.07
2023-04-18T08:48:06.360Z,18.17
2023-04-18T08:51:09.454Z,17.76
2023-04-18T08:54:13.008Z,17.74
2023-04-18T08:57:17.775Z,17.89
2023-04-18T09:00:22.581Z,17.94
2023-04-18T09:03:52.010Z,17.68
2023-04-18T09:06:55.076Z,17.69
2023-04-18T09:09:58.236Z,17.72
2023-04-18T09:13:05.642Z,17.53
2023-04-18T09:16:08.594Z,17.60
2023-04-18T09:19:18.717Z,18.13
2023-04-18T09:22:22.014Z,18.45
2023-04-18T09:25:40.126Z,19.05
2023-04-18T09:28:53.957Z,19.03
2023-04-18T09:32:01.318Z,18.88
2023-04-18T09:35:05.559Z,18.64
2023-04-18T09:38:08.651Z,18.09
2023-04-18T09:41:13.022Z,17.98
2023-04-18T09:44:17.678Z,18.33
2023-04-18T09:47:20.704Z,18.62
2023-04-18T09:50:23.751Z,18.94
2023-04-18T09:53:28.424Z,18.90
2023-04-18T09:56:32.793Z,19.04
2023-04-18T10:00:17.788Z,19.25
2023-04-18T10:03:25.875Z,19.70
2023-04-18T10:06:28.938Z,19.64
2023-04-18T10:09:34.093Z,19.19
2023-04-18T10:12:38.616Z,19.44
2023-04-18T10:15:44.101Z,18.95
2023-04-18T10:18:49.092Z,19.30
2023-04-18T10:22:02.244Z,19.11
2023-04-18T10:25:06.255Z,18.37
2023-04-18T10:28:09.978Z,18.54
2023-04-18T10:31:12.891Z,18.27
2023-04-18T10:34:18.166Z,18.52
2023-04-18T10:37:20.989Z,19.24
2023-04-18T10:40:34.299Z,19.92
2023-04-18T10:44:15.573Z,19.96
2023-04-18T10:47:20.043Z,20.87
2023-04-18T10:50:23.157Z,21.26
2023-04-18T10:53:26.057Z,21.51
2023-04-18T10:56:29.119Z,20.94
2023-04-18T10:59:33.913Z,20.13
2023-04-18T11:02:39.170Z,20.02
2023-04-18T11:05:42.248Z,19.99
2023-04-18T11:08:45.496Z,19.98
2023-04-18T11:12:04.095Z,20.19
2023-04-18T11:15:11.769Z,20.20
2023-04-18T11:18:14.815Z,20.01
2023-04-18T11:21:18.164Z,20.63
2023-04-18T11:24:24.955Z,21.09
2023-04-18T11:27:29.621Z,21.28
2023-04-18T11:30:37.313Z,21.12
2023-04-18T11:33:39.994Z,20.43
2023-04-18T11:36:42.988Z,20.46
2023-04-18T11:39:45.853Z,20.47
2023-04-18T11:42:49.045Z,20.22
2023-04-18T11:45:59.670Z,19.89
2023-04-18T11:49:02.930Z,19.43
2023-04-18T11:52:13.525Z,18.87
2023-04-18T11:55:19.634Z,18.55
2023-04-18T11:58:31.225Z,18.72
2023-04-18T12:01:34.249Z,18.76
2023-04-18T12:04:54.146Z,19.16
2023-04-18T12:08:06.210Z,19.93
2023-04-18T12:11:09.501Z,20.87
2023-04-18T12:14:21.903Z,21.00
2023-04-18T12:17:28.754Z,21.57
2023-04-18T12:20:36.907Z,22.04
2023-04-18T12:23:42.522Z,22.39
2023-04-18T12:26:45.818Z,21.34
2023-04-18T12:29:48.780Z,20.60
2023-04-18T12:32:58.335Z,20.30
2023-04-18T12:36:01.324Z,19.85
2023-04-18T12:39:04.098Z,19.71
2023-04-18T12:42:07.107Z,19.29
2023-04-18T12:45:11.279Z,18.80
2023-04-18T12:48:14.264Z,18.73
2023-04-18T12:51:16.884Z,18.60
2023-04-18T12:54:20.247Z,18.59
2023-04-18T12:57:22.832Z,18.45
2023-04-18T13:00:28.504Z,20.10
2023-04-18T13:03:32.023Z,22.22
2023-04-18T13:06:35.748Z,25.50
2023-04-18T13:09:40.287Z,28.70
2023-04-18T13:12:43.630Z,29.39
2023-04-18T13:15:48.439Z,30.31
2023-04-18T13:18:51.425Z,31.25
2023-04-18T13:21:53.963Z,32.48
2023-04-18T13:24:57.335Z,33.09
2023-04-18T13:28:00.913Z,33.21
2023-04-18T13:31:04.346Z,30.47
2023-04-18T13:34:07.143Z,29.56
2023-04-18T13:37:10.262Z,31.59
2023-04-18T13:40:13.044Z,32.72
2023-04-18T13:43:16.020Z,30.60
2023-04-18T13:46:18.773Z,32.73
2023-04-18T13:49:21.984Z,35.03
2023-04-18T13:52:26.065Z,33.09
2023-04-18T13:55:29.017Z,33.54
2023-04-18T13:58:31.692Z,31.26
2023-04-18T14:01:34.924Z,32.88
2023-04-18T14:04:38.255Z,32.43
2023-04-18T14:07:41.360Z,32.01
2023-04-18T14:10:44.444Z,33.00
2023-04-18T14:13:47.351Z,30.94
2023-04-18T14:16:50.303Z,31.34
2023-04-18T14:19:53.029Z,29.94
2023-04-18T14:22:55.976Z,29.33
2023-04-18T14:25:58.671Z,28.65
2023-04-18T14:29:01.884Z,28.39
2023-04-18T14:32:05.777Z,27.69
2023-04-18T14:35:10.307Z,27.14
2023-04-18T14:38:13.179Z,25.82
2023-04-18T14:41:16.786Z,27.16
2023-04-18T14:44:20.059Z,27.02
2023-04-18T14:47:24.390Z,27.13
2023-04-18T14:50:27.687Z,26.65
2023-04-18T14:53:30.760Z,25.90
2023-04-18T14:56:33.405Z,25.36
2023-04-18T14:59:36.365Z,24.40
2023-04-18T15:02:39.735Z,22.76
2023-04-18T15:05:46.442Z,21.56
2023-04-18T15:08:49.066Z,20.79
2023-04-18T15:11:52.352Z,19.87
2023-04-18T15:14:55.038Z,19.07
2023-04-18T15:17:57.963Z,19.07
2023-04-18T15:21:01.044Z,18.58
2023-04-18T15:24:04.204Z,18.45
2023-04-18T15:27:09.203Z,18.27
2023-04-18T15:30:13.463Z,17.99
2023-04-18T15:33:19.093Z,17.96
2023-04-18T15:36:22.290Z,17.78
2023-04-18T15:39:25.193Z,17.83
2023-04-18T15:42:29.852Z,17.60
2023-04-18T15:45:33.501Z,17.68
2023-04-18T15:48:36.575Z,17.56
2023-04-18T15:51:41.268Z,17.54
2023-04-18T15:54:48.380Z,17.59
